sensor_id;sensor_type;location;lat;lon;timestamp;pressure;altitude;pressure_sealevel;temperature;humidity
6387;BME280;3226;42.162;24.756;2022-09-03T00:01:19;99422.00;;;19.71;100.00
6387;BME280;3226;42.162;24.756;2022-09-03T00:03:50;99427.97;;;19.79;100.00
6387;BME280;3226;42.162;24.756;2022-09-03T00:06:24;99429.69;;;19.87;100.00
6387;BME280;3226;42.162;24.756;2022-09-03T00:08:57;99421.16;;;19.92;100.00
6387;BME280;3226;42.162;24.756;2022-09-03T00:11:32;99427.94;;;19.73;100.00
6387;BME280;3226;42.162;24.756;2022-09-03T00:14:08;99422.91;;;19.56;100.00
6387;BME280;3226;42.162;24.756;2022-09-03T00:16:44;99426.84;;;19.39;100.00
6387;BME280;3226;42.162;24.756;2022-09-03T00:19:17;99429.19;;;19.48;100.00
6387;BME280;3226;42.162;24.756;2022-09-03T00:21:50;99433.53;;;19.34;100.00
6387;BME280;3226;42.162;24.756;2022-09-03T00:24:27;99434.09;;;19.30;100.00
6387;BME280;3226;42.162;24.756;2022-09-03T00:27:00;99434.56;;;19.33;100.00
6387;BME280;3226;42.162;24.756;2022-09-03T00:29:34;99437.69;;;19.22;100.00
6387;BME280;3226;42.162;24.756;2022-09-03T00:32:08;99426.31;;;19.06;100.00
6387;BME280;3226;42.162;24.756;2022-09-03T00:34:39;99426.19;;;19.15;100.00
6387;BME280;3226;42.162;24.756;2022-09-03T00:37:10;99428.84;;;19.15;100.00
6387;BME280;3226;42.162;24.756;2022-09-03T00:39:41;99429.25;;;19.33;100.00
6387;BME280;3226;42.162;24.756;2022-09-03T00:42:23;99421.78;;;19.44;100.00
6387;BME280;3226;42.162;24.756;2022-09-03T00:45:09;99422.28;;;19.54;100.00
6387;BME280;3226;42.162;24.756;2022-09-03T00:47:50;99422.78;;;19.43;100.00
6387;BME280;3226;42.162;24.756;2022-09-03T00:50:30;99419.63;;;19.54;100.00
6387;BME280;3226;42.162;24.756;2022-09-03T00:53:06;99412.28;;;19.56;100.00
6387;BME280;3226;42.162;24.756;2022-09-03T00:55:43;99420.94;;;19.65;100.00
6387;BME280;3226;42.162;24.756;2022-09-03T00:58:25;99415.16;;;19.61;99.82
6387;BME280;3226;42.162;24.756;2022-09-03T01:00:59;99426.69;;;19.69;98.97
6387;BME280;3226;42.162;24.756;2022-09-03T01:03:38;99427.03;;;19.59;99.61
6387;BME280;3226;42.162;24.756;2022-09-03T01:06:16;99429.09;;;19.63;99.71
6387;BME280;3226;42.162;24.756;2022-09-03T01:09:00;99428.41;;;19.55;100.00
6387;BME280;3226;42.162;24.756;2022-09-03T01:11:37;99413.50;;;19.54;99.72
6387;BME280;3226;42.162;24.756;2022-09-03T01:14:19;99433.09;;;19.53;99.99
6387;BME280;3226;42.162;24.756;2022-09-03T01:16:57;99428.72;;;19.45;99.64
6387;BME280;3226;42.162;24.756;2022-09-03T01:19:46;99431.22;;;19.46;98.26
6387;BME280;3226;42.162;24.756;2022-09-03T01:25:22;99429.03;;;19.35;96.61
6387;BME280;3226;42.162;24.756;2022-09-03T01:28:12;99406.28;;;19.26;96.40
6387;BME280;3226;42.162;24.756;2022-09-03T01:30:50;99422.66;;;19.51;96.65
6387;BME280;3226;42.162;24.756;2022-09-03T01:33:26;99434.28;;;19.50;96.63
6387;BME280;3226;42.162;24.756;2022-09-03T01:36:04;99428.63;;;19.31;97.06
6387;BME280;3226;42.162;24.756;2022-09-03T01:38:41;99424.81;;;19.41;97.10
6387;BME280;3226;42.162;24.756;2022-09-03T01:41:20;99428.22;;;19.34;96.97
6387;BME280;3226;42.162;24.756;2022-09-03T01:44:19;99425.19;;;19.38;97.02
6387;BME280;3226;42.162;24.756;2022-09-03T01:47:01;99420.91;;;19.36;96.04
6387;BME280;3226;42.162;24.756;2022-09-03T01:49:42;99422.72;;;19.36;95.88
6387;BME280;3226;42.162;24.756;2022-09-03T01:52:18;99427.09;;;19.44;94.79
6387;BME280;3226;42.162;24.756;2022-09-03T01:55:00;99420.13;;;19.43;94.44
6387;BME280;3226;42.162;24.756;2022-09-03T01:57:42;99421.78;;;19.44;94.63
6387;BME280;3226;42.162;24.756;2022-09-03T02:00:14;99404.28;;;19.28;95.32
6387;BME280;3226;42.162;24.756;2022-09-03T02:02:45;99416.28;;;19.45;94.40
6387;BME280;3226;42.162;24.756;2022-09-03T02:05:16;99401.00;;;19.47;92.65
6387;BME280;3226;42.162;24.756;2022-09-03T02:07:46;99420.88;;;19.58;92.75
6387;BME280;3226;42.162;24.756;2022-09-03T02:10:16;99418.50;;;19.63;92.07
6387;BME280;3226;42.162;24.756;2022-09-03T02:12:50;99426.19;;;19.58;92.68
6387;BME280;3226;42.162;24.756;2022-09-03T02:15:23;99434.53;;;19.55;93.31
6387;BME280;3226;42.162;24.756;2022-09-03T02:17:54;99444.09;;;19.49;92.74
6387;BME280;3226;42.162;24.756;2022-09-03T02:20:27;99434.88;;;19.45;93.30
6387;BME280;3226;42.162;24.756;2022-09-03T02:22:57;99442.94;;;19.59;92.57
6387;BME280;3226;42.162;24.756;2022-09-03T02:25:29;99443.97;;;19.58;92.52
6387;BME280;3226;42.162;24.756;2022-09-03T02:28:00;99451.06;;;19.50;92.76
6387;BME280;3226;42.162;24.756;2022-09-03T02:30:30;99446.16;;;19.54;92.86
6387;BME280;3226;42.162;24.756;2022-09-03T02:32:59;99451.38;;;19.62;92.13
6387;BME280;3226;42.162;24.756;2022-09-03T02:35:27;99444.50;;;19.46;92.47
6387;BME280;3226;42.162;24.756;2022-09-03T02:37:55;99460.03;;;19.49;92.71
6387;BME280;3226;42.162;24.756;2022-09-03T02:40:24;99460.28;;;19.55;92.12
6387;BME280;3226;42.162;24.756;2022-09-03T02:42:52;99444.03;;;19.43;91.40
6387;BME280;3226;42.162;24.756;2022-09-03T02:45:26;99461.34;;;19.39;92.79
6387;BME280;3226;42.162;24.756;2022-09-03T02:47:58;99453.13;;;19.33;92.58
6387;BME280;3226;42.162;24.756;2022-09-03T02:50:27;99456.22;;;19.37;92.34
6387;BME280;3226;42.162;24.756;2022-09-03T02:52:55;99458.63;;;19.32;93.19
6387;BME280;3226;42.162;24.756;2022-09-03T02:55:23;99455.34;;;19.30;92.42
6387;BME280;3226;42.162;24.756;2022-09-03T02:57:51;99460.78;;;19.21;92.81
6387;BME280;3226;42.162;24.756;2022-09-03T03:00:19;99460.94;;;19.20;92.77
6387;BME280;3226;42.162;24.756;2022-09-03T03:02:47;99450.72;;;19.17;93.51
6387;BME280;3226;42.162;24.756;2022-09-03T03:05:25;99458.88;;;19.15;93.86
6387;BME280;3226;42.162;24.756;2022-09-03T03:07:56;99453.50;;;19.09;93.55
6387;BME280;3226;42.162;24.756;2022-09-03T03:10:24;99458.91;;;19.00;93.16
6387;BME280;3226;42.162;24.756;2022-09-03T03:12:54;99452.66;;;19.08;93.55
6387;BME280;3226;42.162;24.756;2022-09-03T03:15:22;99458.03;;;19.15;93.28
6387;BME280;3226;42.162;24.756;2022-09-03T03:17:50;99444.66;;;19.23;91.89
6387;BME280;3226;42.162;24.756;2022-09-03T03:20:20;99434.03;;;19.23;91.02
6387;BME280;3226;42.162;24.756;2022-09-03T03:22:48;99431.13;;;19.18;90.55
6387;BME280;3226;42.162;24.756;2022-09-03T03:25:17;99434.72;;;19.32;90.47
6387;BME280;3226;42.162;24.756;2022-09-03T03:27:45;99443.28;;;19.49;90.05
6387;BME280;3226;42.162;24.756;2022-09-03T03:30:13;99443.06;;;19.29;90.41
6387;BME280;3226;42.162;24.756;2022-09-03T03:32:42;99457.69;;;19.40;90.03
6387;BME280;3226;42.162;24.756;2022-09-03T03:35:10;99453.19;;;19.40;89.70
6387;BME280;3226;42.162;24.756;2022-09-03T03:37:41;99448.50;;;19.42;89.53
6387;BME280;3226;42.162;24.756;2022-09-03T03:40:10;99453.81;;;19.42;89.63
6387;BME280;3226;42.162;24.756;2022-09-03T03:42:38;99448.47;;;19.35;90.17
6387;BME280;3226;42.162;24.756;2022-09-03T03:45:08;99368.34;;;18.88;89.97
6387;BME280;3226;42.162;24.756;2022-09-03T03:47:36;99454.03;;;19.41;89.34
6387;BME280;3226;42.162;24.756;2022-09-03T03:50:05;99445.94;;;19.27;89.76
6387;BME280;3226;42.162;24.756;2022-09-03T03:52:34;99459.63;;;19.31;89.84
6387;BME280;3226;42.162;24.756;2022-09-03T03:55:05;99442.63;;;19.25;90.00
6387;BME280;3226;42.162;24.756;2022-09-03T03:57:33;99443.38;;;19.19;90.61
6387;BME280;3226;42.162;24.756;2022-09-03T04:00:03;99464.75;;;19.11;91.32
6387;BME280;3226;42.162;24.756;2022-09-03T04:02:32;99459.69;;;19.16;90.81
6387;BME280;3226;42.162;24.756;2022-09-03T04:05:05;99461.78;;;19.20;90.64
6387;BME280;3226;42.162;24.756;2022-09-03T04:07:34;99437.09;;;19.05;90.37
6387;BME280;3226;42.162;24.756;2022-09-03T04:10:04;99464.84;;;19.02;91.90
6387;BME280;3226;42.162;24.756;2022-09-03T04:12:33;99452.03;;;18.91;92.28
6387;BME280;3226;42.162;24.756;2022-09-03T04:15:01;99446.38;;;18.94;91.12
6387;BME280;3226;42.162;24.756;2022-09-03T04:17:29;99469.28;;;19.17;90.46
6387;BME280;3226;42.162;24.756;2022-09-03T04:19:58;99461.63;;;19.07;90.65
6387;BME280;3226;42.162;24.756;2022-09-03T04:22:27;99469.03;;;19.12;89.98
6387;BME280;3226;42.162;24.756;2022-09-03T04:24:56;99466.13;;;19.06;90.71
6387;BME280;3226;42.162;24.756;2022-09-03T04:27:25;99469.88;;;19.12;90.48
6387;BME280;3226;42.162;24.756;2022-09-03T04:29:54;99459.81;;;19.07;90.33
6387;BME280;3226;42.162;24.756;2022-09-03T04:32:22;99460.56;;;19.01;90.10
6387;BME280;3226;42.162;24.756;2022-09-03T04:35:08;99478.00;;;18.96;90.56
6387;BME280;3226;42.162;24.756;2022-09-03T04:37:36;99471.34;;;19.00;90.25
6387;BME280;3226;42.162;24.756;2022-09-03T04:40:05;99477.50;;;19.00;90.23
6387;BME280;3226;42.162;24.756;2022-09-03T04:42:35;99482.88;;;18.92;91.37
6387;BME280;3226;42.162;24.756;2022-09-03T04:45:04;99481.88;;;18.93;89.44
6387;BME280;3226;42.162;24.756;2022-09-03T04:47:32;99481.56;;;18.88;90.22
6387;BME280;3226;42.162;24.756;2022-09-03T04:50:02;99487.91;;;19.02;89.40
6387;BME280;3226;42.162;24.756;2022-09-03T04:52:31;99452.72;;;18.63;90.70
6387;BME280;3226;42.162;24.756;2022-09-03T04:54:59;99499.25;;;18.81;90.77
6387;BME280;3226;42.162;24.756;2022-09-03T04:57:28;99496.94;;;18.92;90.29
6387;BME280;3226;42.162;24.756;2022-09-03T05:00:02;99503.38;;;18.83;90.80
6387;BME280;3226;42.162;24.756;2022-09-03T05:02:30;99502.38;;;18.84;90.21
6387;BME280;3226;42.162;24.756;2022-09-03T05:04:59;99507.69;;;18.99;90.15
6387;BME280;3226;42.162;24.756;2022-09-03T05:07:27;99504.75;;;18.79;91.48
6387;BME280;3226;42.162;24.756;2022-09-03T05:10:05;99510.31;;;18.84;90.87
6387;BME280;3226;42.162;24.756;2022-09-03T05:12:34;99503.44;;;18.90;90.49
6387;BME280;3226;42.162;24.756;2022-09-03T05:15:05;99509.03;;;18.95;90.82
6387;BME280;3226;42.162;24.756;2022-09-03T05:17:33;99504.38;;;18.97;90.81
6387;BME280;3226;42.162;24.756;2022-09-03T05:20:05;99494.69;;;19.04;89.96
6387;BME280;3226;42.162;24.756;2022-09-03T05:22:34;99510.28;;;19.29;89.05
6387;BME280;3226;42.162;24.756;2022-09-03T05:25:03;99497.94;;;19.21;88.62
6387;BME280;3226;42.162;24.756;2022-09-03T05:27:32;99515.75;;;19.28;89.25
6387;BME280;3226;42.162;24.756;2022-09-03T05:30:00;99524.28;;;19.23;88.46
6387;BME280;3226;42.162;24.756;2022-09-03T05:32:30;99528.31;;;19.56;87.57
6387;BME280;3226;42.162;24.756;2022-09-03T05:34:59;99536.28;;;19.56;87.35
6387;BME280;3226;42.162;24.756;2022-09-03T05:37:28;99530.53;;;19.74;85.85
6387;BME280;3226;42.162;24.756;2022-09-03T05:39:56;99525.34;;;19.87;85.38
6387;BME280;3226;42.162;24.756;2022-09-03T05:42:24;99531.81;;;19.78;84.43
6387;BME280;3226;42.162;24.756;2022-09-03T05:44:55;99528.06;;;19.72;84.80
6387;BME280;3226;42.162;24.756;2022-09-03T05:47:23;99511.75;;;19.75;85.35
6387;BME280;3226;42.162;24.756;2022-09-03T05:49:53;99535.16;;;19.87;85.06
6387;BME280;3226;42.162;24.756;2022-09-03T05:52:21;99519.78;;;19.82;84.81
6387;BME280;3226;42.162;24.756;2022-09-03T05:54:49;99537.78;;;20.02;84.33
6387;BME280;3226;42.162;24.756;2022-09-03T05:57:18;99541.09;;;20.11;84.24
6387;BME280;3226;42.162;24.756;2022-09-03T05:59:46;99544.44;;;20.19;84.14
6387;BME280;3226;42.162;24.756;2022-09-03T06:02:14;99531.91;;;20.35;84.00
6387;BME280;3226;42.162;24.756;2022-09-03T06:04:45;99518.38;;;20.36;83.37
6387;BME280;3226;42.162;24.756;2022-09-03T06:07:15;99535.03;;;20.45;82.82
6387;BME280;3226;42.162;24.756;2022-09-03T06:09:43;99543.66;;;20.26;82.45
6387;BME280;3226;42.162;24.756;2022-09-03T06:12:11;99549.38;;;20.22;82.83
6387;BME280;3226;42.162;24.756;2022-09-03T06:14:39;99553.78;;;20.37;82.89
6387;BME280;3226;42.162;24.756;2022-09-03T06:17:08;99527.03;;;20.45;83.10
6387;BME280;3226;42.162;24.756;2022-09-03T06:19:38;99542.97;;;20.74;81.91
6387;BME280;3226;42.162;24.756;2022-09-03T06:22:06;99548.09;;;20.75;81.39
6387;BME280;3226;42.162;24.756;2022-09-03T06:24:36;99550.53;;;20.70;81.54
6387;BME280;3226;42.162;24.756;2022-09-03T06:27:04;99541.66;;;20.63;81.21
6387;BME280;3226;42.162;24.756;2022-09-03T06:29:32;99559.41;;;20.84;81.43
6387;BME280;3226;42.162;24.756;2022-09-03T06:32:02;99557.97;;;20.82;79.81
6387;BME280;3226;42.162;24.756;2022-09-03T06:34:30;99550.56;;;20.77;80.03
6387;BME280;3226;42.162;24.756;2022-09-03T06:37:00;99547.47;;;20.73;79.73
6387;BME280;3226;42.162;24.756;2022-09-03T06:39:28;99549.22;;;20.59;80.07
6387;BME280;3226;42.162;24.756;2022-09-03T06:41:58;99531.19;;;20.55;80.52
6387;BME280;3226;42.162;24.756;2022-09-03T06:44:26;99551.47;;;20.91;79.56
6387;BME280;3226;42.162;24.756;2022-09-03T06:46:54;99553.19;;;21.05;79.56
6387;BME280;3226;42.162;24.756;2022-09-03T06:49:26;99561.22;;;21.19;77.96
6387;BME280;3226;42.162;24.756;2022-09-03T06:51:57;99547.47;;;21.08;78.95
6387;BME280;3226;42.162;24.756;2022-09-03T06:54:25;99439.78;;;20.27;79.08
6387;BME280;3226;42.162;24.756;2022-09-03T06:56:53;99550.34;;;21.14;78.92
6387;BME280;3226;42.162;24.756;2022-09-03T06:59:23;99554.28;;;21.31;78.74
6387;BME280;3226;42.162;24.756;2022-09-03T07:01:51;99548.94;;;21.18;77.92
6387;BME280;3226;42.162;24.756;2022-09-03T07:04:20;99550.84;;;21.37;78.83
6387;BME280;3226;42.162;24.756;2022-09-03T07:06:51;99539.41;;;21.44;77.28
6387;BME280;3226;42.162;24.756;2022-09-03T07:09:19;99552.78;;;21.71;76.96
6387;BME280;3226;42.162;24.756;2022-09-03T07:11:47;99555.84;;;21.67;76.29
6387;BME280;3226;42.162;24.756;2022-09-03T07:14:16;99555.91;;;21.81;76.10
6387;BME280;3226;42.162;24.756;2022-09-03T07:16:47;99563.28;;;21.99;75.76
6387;BME280;3226;42.162;24.756;2022-09-03T07:19:16;99476.72;;;21.48;75.60
6387;BME280;3226;42.162;24.756;2022-09-03T07:21:45;99554.88;;;22.16;74.43
6387;BME280;3226;42.162;24.756;2022-09-03T07:24:17;99564.91;;;22.34;74.20
6387;BME280;3226;42.162;24.756;2022-09-03T07:26:48;99569.25;;;22.28;72.67
6387;BME280;3226;42.162;24.756;2022-09-03T07:29:17;99575.41;;;22.35;73.20
6387;BME280;3226;42.162;24.756;2022-09-03T07:31:50;99563.06;;;22.41;72.83
6387;BME280;3226;42.162;24.756;2022-09-03T07:34:20;99569.22;;;22.55;72.41
6387;BME280;3226;42.162;24.756;2022-09-03T07:36:52;99576.63;;;22.60;72.44
6387;BME280;3226;42.162;24.756;2022-09-03T07:39:20;99585.44;;;22.74;71.99
6387;BME280;3226;42.162;24.756;2022-09-03T07:41:48;99575.97;;;22.85;70.97
6387;BME280;3226;42.162;24.756;2022-09-03T07:44:17;99577.97;;;22.96;70.89
6387;BME280;3226;42.162;24.756;2022-09-03T07:46:47;99569.97;;;22.89;70.17
6387;BME280;3226;42.162;24.756;2022-09-03T07:49:18;99588.06;;;22.94;68.08
6387;BME280;3226;42.162;24.756;2022-09-03T07:51:48;99587.03;;;22.95;66.84
6387;BME280;3226;42.162;24.756;2022-09-03T07:54:20;99585.41;;;22.87;66.88
6387;BME280;3226;42.162;24.756;2022-09-03T07:56:50;99583.94;;;22.91;66.86
6387;BME280;3226;42.162;24.756;2022-09-03T07:59:18;99583.50;;;23.01;66.75
6387;BME280;3226;42.162;24.756;2022-09-03T08:01:50;99577.38;;;22.94;66.28
6387;BME280;3226;42.162;24.756;2022-09-03T08:04:18;99509.69;;;22.68;65.75
6387;BME280;3226;42.162;24.756;2022-09-03T08:06:47;99573.00;;;23.13;66.03
6387;BME280;3226;42.162;24.756;2022-09-03T08:09:16;99572.56;;;23.16;66.11
6387;BME280;3226;42.162;24.756;2022-09-03T08:11:44;99579.13;;;23.27;65.40
6387;BME280;3226;42.162;24.756;2022-09-03T08:14:12;99571.91;;;23.34;64.73
6387;BME280;3226;42.162;24.756;2022-09-03T08:16:43;99568.78;;;23.44;65.43
6387;BME280;3226;42.162;24.756;2022-09-03T08:19:15;99572.22;;;23.51;65.32
6387;BME280;3226;42.162;24.756;2022-09-03T08:21:44;99560.91;;;23.56;65.65
6387;BME280;3226;42.162;24.756;2022-09-03T08:24:14;99561.25;;;23.66;64.72
6387;BME280;3226;42.162;24.756;2022-09-03T08:26:43;99559.78;;;23.71;63.44
6387;BME280;3226;42.162;24.756;2022-09-03T08:29:17;99562.13;;;23.53;62.75
6387;BME280;3226;42.162;24.756;2022-09-03T08:31:46;99564.31;;;23.70;63.37
6387;BME280;3226;42.162;24.756;2022-09-03T08:34:16;99561.75;;;23.82;63.07
6387;BME280;3226;42.162;24.756;2022-09-03T08:36:44;99548.31;;;23.95;62.92
6387;BME280;3226;42.162;24.756;2022-09-03T08:39:13;99552.53;;;24.10;63.04
6387;BME280;3226;42.162;24.756;2022-09-03T08:42:01;99548.91;;;24.23;62.88
6387;BME280;3226;42.162;24.756;2022-09-03T08:44:40;99555.78;;;24.12;62.67
6387;BME280;3226;42.162;24.756;2022-09-03T08:47:13;99557.06;;;24.35;62.83
6387;BME280;3226;42.162;24.756;2022-09-03T08:49:47;99551.00;;;24.21;61.70
6387;BME280;3226;42.162;24.756;2022-09-03T08:52:27;99530.97;;;23.98;62.80
6387;BME280;3226;42.162;24.756;2022-09-03T08:55:01;99551.09;;;24.33;62.06
6387;BME280;3226;42.162;24.756;2022-09-03T08:57:36;99546.81;;;24.50;61.26
6387;BME280;3226;42.162;24.756;2022-09-03T09:00:08;99541.00;;;24.53;60.80
6387;BME280;3226;42.162;24.756;2022-09-03T09:02:44;99536.88;;;24.58;61.12
6387;BME280;3226;42.162;24.756;2022-09-03T09:05:23;99541.25;;;24.71;60.94
6387;BME280;3226;42.162;24.756;2022-09-03T09:08:01;99535.38;;;24.62;60.60
6387;BME280;3226;42.162;24.756;2022-09-03T09:10:34;99522.34;;;24.65;61.09
6387;BME280;3226;42.162;24.756;2022-09-03T09:13:11;99546.09;;;24.62;61.21
6387;BME280;3226;42.162;24.756;2022-09-03T09:15:47;99546.94;;;24.55;61.28
6387;BME280;3226;42.162;24.756;2022-09-03T09:18:22;99550.47;;;24.56;61.35
6387;BME280;3226;42.162;24.756;2022-09-03T09:21:05;99536.44;;;24.61;60.84
6387;BME280;3226;42.162;24.756;2022-09-03T09:23:38;99544.56;;;24.47;61.30
6387;BME280;3226;42.162;24.756;2022-09-03T09:26:11;99553.53;;;24.60;60.88
6387;BME280;3226;42.162;24.756;2022-09-03T09:28:41;99549.25;;;24.77;60.88
6387;BME280;3226;42.162;24.756;2022-09-03T09:31:13;99551.34;;;24.94;60.42
6387;BME280;3226;42.162;24.756;2022-09-03T09:33:44;99547.00;;;24.93;59.30
6387;BME280;3226;42.162;24.756;2022-09-03T09:36:16;99548.66;;;24.94;58.67
6387;BME280;3226;42.162;24.756;2022-09-03T09:38:45;99552.13;;;25.13;59.11
6387;BME280;3226;42.162;24.756;2022-09-03T09:41:16;99539.91;;;25.17;58.08
6387;BME280;3226;42.162;24.756;2022-09-03T09:43:46;99541.34;;;25.32;57.44
6387;BME280;3226;42.162;24.756;2022-09-03T09:46:18;99534.81;;;25.27;56.39
6387;BME280;3226;42.162;24.756;2022-09-03T09:48:49;99539.97;;;25.29;56.16
6387;BME280;3226;42.162;24.756;2022-09-03T09:51:21;99533.69;;;25.35;56.63
6387;BME280;3226;42.162;24.756;2022-09-03T09:54:00;99542.91;;;25.39;56.01
6387;BME280;3226;42.162;24.756;2022-09-03T09:56:29;99545.91;;;25.31;56.85
6387;BME280;3226;42.162;24.756;2022-09-03T09:59:02;99542.19;;;25.63;56.13
6387;BME280;3226;42.162;24.756;2022-09-03T10:01:30;99537.41;;;25.34;55.70
6387;BME280;3226;42.162;24.756;2022-09-03T10:04:07;99530.97;;;25.05;56.07
6387;BME280;3226;42.162;24.756;2022-09-03T10:06:37;99544.88;;;25.32;56.10
6387;BME280;3226;42.162;24.756;2022-09-03T10:09:24;99527.59;;;25.28;56.39
6387;BME280;3226;42.162;24.756;2022-09-03T10:12:07;99528.09;;;25.37;55.52
6387;BME280;3226;42.162;24.756;2022-09-03T10:14:43;99539.16;;;25.59;55.99
6387;BME280;3226;42.162;24.756;2022-09-03T10:17:19;99523.81;;;25.66;55.63
6387;BME280;3226;42.162;24.756;2022-09-03T10:20:06;99519.56;;;25.59;56.16
6387;BME280;3226;42.162;24.756;2022-09-03T10:23:00;99522.91;;;25.84;55.48
6387;BME280;3226;42.162;24.756;2022-09-03T10:25:44;99520.94;;;25.92;55.27
6387;BME280;3226;42.162;24.756;2022-09-03T10:28:21;99515.16;;;25.64;55.35
6387;BME280;3226;42.162;24.756;2022-09-03T10:31:06;99518.34;;;25.85;55.90
6387;BME280;3226;42.162;24.756;2022-09-03T10:33:47;99510.41;;;25.90;55.53
6387;BME280;3226;42.162;24.756;2022-09-03T10:36:22;99506.50;;;26.17;53.96
6387;BME280;3226;42.162;24.756;2022-09-03T10:38:58;99496.94;;;26.21;54.50
6387;BME280;3226;42.162;24.756;2022-09-03T10:41:39;99517.00;;;26.42;53.92
6387;BME280;3226;42.162;24.756;2022-09-03T10:44:37;99513.69;;;26.64;54.76
6387;BME280;3226;42.162;24.756;2022-09-03T10:47:19;99511.38;;;26.55;53.29
6387;BME280;3226;42.162;24.756;2022-09-03T10:49:54;99513.63;;;26.23;53.38
6387;BME280;3226;42.162;24.756;2022-09-03T10:52:27;99523.78;;;26.21;54.74
6387;BME280;3226;42.162;24.756;2022-09-03T10:55:12;99443.00;;;25.98;54.58
6387;BME280;3226;42.162;24.756;2022-09-03T10:57:47;99520.38;;;26.49;52.88
6387;BME280;3226;42.162;24.756;2022-09-03T11:00:17;99514.38;;;26.71;52.50
6387;BME280;3226;42.162;24.756;2022-09-03T11:03:10;99521.81;;;26.93;51.94
6387;BME280;3226;42.162;24.756;2022-09-03T11:05:55;99514.06;;;27.08;51.10
6387;BME280;3226;42.162;24.756;2022-09-03T11:08:29;99519.53;;;27.13;49.78
6387;BME280;3226;42.162;24.756;2022-09-03T11:11:07;99518.44;;;27.26;50.10
6387;BME280;3226;42.162;24.756;2022-09-03T11:13:39;99511.16;;;27.27;50.29
6387;BME280;3226;42.162;24.756;2022-09-03T11:16:14;99510.78;;;27.35;50.89
6387;BME280;3226;42.162;24.756;2022-09-03T11:18:48;99526.81;;;27.30;50.92
6387;BME280;3226;42.162;24.756;2022-09-03T11:21:21;99518.56;;;26.91;50.16
6387;BME280;3226;42.162;24.756;2022-09-03T11:23:53;99519.66;;;26.54;50.55
6387;BME280;3226;42.162;24.756;2022-09-03T11:26:27;99515.97;;;26.96;50.59
6387;BME280;3226;42.162;24.756;2022-09-03T11:28:58;99513.09;;;27.15;50.09
6387;BME280;3226;42.162;24.756;2022-09-03T11:31:35;99496.50;;;27.18;50.12
6387;BME280;3226;42.162;24.756;2022-09-03T11:34:12;99522.41;;;27.53;50.13
6387;BME280;3226;42.162;24.756;2022-09-03T11:36:49;99505.72;;;27.68;49.88
6387;BME280;3226;42.162;24.756;2022-09-03T11:39:19;99507.03;;;27.82;49.13
6387;BME280;3226;42.162;24.756;2022-09-03T11:41:57;99505.72;;;27.85;48.10
6387;BME280;3226;42.162;24.756;2022-09-03T11:44:36;99508.34;;;27.80;48.29
6387;BME280;3226;42.162;24.756;2022-09-03T11:47:22;99511.13;;;27.39;47.97
6387;BME280;3226;42.162;24.756;2022-09-03T11:49:51;99506.31;;;27.41;48.04
6387;BME280;3226;42.162;24.756;2022-09-03T11:52:26;99501.81;;;27.59;47.89
6387;BME280;3226;42.162;24.756;2022-09-03T11:54:55;99504.59;;;27.35;46.77
6387;BME280;3226;42.162;24.756;2022-09-03T11:57:27;99508.44;;;27.39;47.46
6387;BME280;3226;42.162;24.756;2022-09-03T12:00:07;99495.16;;;27.49;47.80
6387;BME280;3226;42.162;24.756;2022-09-03T12:02:43;99513.56;;;27.40;47.35
6387;BME280;3226;42.162;24.756;2022-09-03T12:05:19;99496.09;;;27.26;47.31
6387;BME280;3226;42.162;24.756;2022-09-03T12:08:12;99502.81;;;27.40;46.61
6387;BME280;3226;42.162;24.756;2022-09-03T12:10:51;99503.00;;;27.22;46.60
6387;BME280;3226;42.162;24.756;2022-09-03T12:13:34;99500.34;;;27.22;47.38
6387;BME280;3226;42.162;24.756;2022-09-03T12:19:12;99479.97;;;27.26;46.17
6387;BME280;3226;42.162;24.756;2022-09-03T12:21:48;99494.47;;;27.25;45.74
6387;BME280;3226;42.162;24.756;2022-09-03T12:24:18;99493.94;;;27.40;46.19
6387;BME280;3226;42.162;24.756;2022-09-03T12:26:46;99494.75;;;27.40;45.07
6387;BME280;3226;42.162;24.756;2022-09-03T12:29:24;99499.38;;;27.45;45.29
6387;BME280;3226;42.162;24.756;2022-09-03T12:32:06;99487.78;;;27.56;45.43
6387;BME280;3226;42.162;24.756;2022-09-03T12:34:35;99482.81;;;27.82;45.24
6387;BME280;3226;42.162;24.756;2022-09-03T12:37:17;99489.56;;;28.02;44.33
6387;BME280;3226;42.162;24.756;2022-09-03T12:40:16;99488.31;;;28.27;44.07
6387;BME280;3226;42.162;24.756;2022-09-03T12:42:47;99485.59;;;28.44;43.32
6387;BME280;3226;42.162;24.756;2022-09-03T12:45:20;99496.81;;;28.58;43.11
6387;BME280;3226;42.162;24.756;2022-09-03T12:47:50;99496.19;;;28.73;42.38
6387;BME280;3226;42.162;24.756;2022-09-03T12:50:20;99481.25;;;28.82;41.58
6387;BME280;3226;42.162;24.756;2022-09-03T12:52:51;99474.19;;;29.04;41.88
6387;BME280;3226;42.162;24.756;2022-09-03T12:55:27;99479.34;;;29.10;41.86
6387;BME280;3226;42.162;24.756;2022-09-03T12:58:02;99480.56;;;28.97;41.16
6387;BME280;3226;42.162;24.756;2022-09-03T13:00:42;99457.41;;;28.52;41.62
6387;BME280;3226;42.162;24.756;2022-09-03T13:03:16;99473.19;;;27.87;43.01
6387;BME280;3226;42.162;24.756;2022-09-03T13:05:48;99474.63;;;28.11;43.41
6387;BME280;3226;42.162;24.756;2022-09-03T13:08:21;99470.31;;;28.10;44.13
6387;BME280;3226;42.162;24.756;2022-09-03T13:10:52;99472.66;;;28.07;42.94
6387;BME280;3226;42.162;24.756;2022-09-03T13:13:23;99478.97;;;27.95;43.81
6387;BME280;3226;42.162;24.756;2022-09-03T13:16:21;99473.28;;;27.75;43.74
6387;BME280;3226;42.162;24.756;2022-09-03T13:18:59;99472.53;;;27.79;43.65
6387;BME280;3226;42.162;24.756;2022-09-03T13:21:37;99478.25;;;27.66;42.90
6387;BME280;3226;42.162;24.756;2022-09-03T13:24:24;99476.50;;;27.42;41.99
6387;BME280;3226;42.162;24.756;2022-09-03T13:27:03;99475.06;;;27.52;42.61
6387;BME280;3226;42.162;24.756;2022-09-03T13:29:40;99475.53;;;27.49;43.87
6387;BME280;3226;42.162;24.756;2022-09-03T13:32:24;99476.13;;;27.51;42.95
6387;BME280;3226;42.162;24.756;2022-09-03T13:34:58;99462.13;;;27.66;43.28
6387;BME280;3226;42.162;24.756;2022-09-03T13:37:34;99478.41;;;27.93;43.52
6387;BME280;3226;42.162;24.756;2022-09-03T13:40:13;99473.59;;;27.78;42.23
6387;BME280;3226;42.162;24.756;2022-09-03T13:42:47;99483.63;;;27.66;42.82
6387;BME280;3226;42.162;24.756;2022-09-03T13:45:28;99466.03;;;27.58;43.62
6387;BME280;3226;42.162;24.756;2022-09-03T13:48:07;99477.69;;;27.81;44.06